Time;durP1;ratioP1;P1;durP2;ratioP2;P2;SDS_P1;SDS_P2;PMS_P1;PMS_P2;Temp;Humidity;BMP_temperature;BMP_pressure;BME280_temperature;BME280_humidity;BME280_pressure;Samples;Min_cycle;Max_cycle;Signal;HPM_P1;HPM_P2
2022/07/13 00:03:42;;;;;;;3.15;2.50;;;;;;;23.38;45.96;102057.94;16133112;19;130283;-62
2022/07/13 00:09:04;;;;;;;3.15;2.30;;;;;;;23.36;45.77;102058.16;16134022;19;129241;-62
2022/07/13 00:14:26;;;;;;;4.38;2.33;;;;;;;23.37;45.76;102056.22;16175452;19;129748;-62
2022/07/13 00:19:48;;;;;;;2.72;1.90;;;;;;;23.35;45.71;102045.28;16219771;19;129572;-62
2022/07/13 00:25:10;;;;;;;2.72;1.90;;;;;;;23.33;45.28;102042.78;16215363;19;128656;-62
2022/07/13 00:30:32;;;;;;;3.05;2.40;;;;;;;23.33;45.38;102039.97;16219003;19;127605;-63
2022/07/13 00:35:53;;;;;;;2.83;1.90;;;;;;;23.32;45.56;102027.13;16218654;19;127980;-63
2022/07/13 00:41:15;;;;;;;2.40;1.80;;;;;;;23.31;45.51;102019.00;16218275;19;128960;-63
2022/07/13 00:46:39;;;;;;;2.47;1.65;;;;;;;23.31;45.57;102008.66;16210632;19;128414;-63
2022/07/13 00:52:01;;;;;;;2.83;1.95;;;;;;;23.29;45.67;102005.28;16214539;19;128083;-63
2022/07/13 00:57:23;;;;;;;4.85;1.65;;;;;;;23.29;45.54;101993.28;16213441;19;128747;-62
2022/07/13 01:02:46;;;;;;;2.03;1.40;;;;;;;23.29;45.54;101996.91;16182969;19;128968;-63
2022/07/13 01:08:08;;;;;;;1.95;1.58;;;;;;;23.27;45.61;101979.53;16143182;19;129381;-63
2022/07/13 01:13:30;;;;;;;2.08;1.55;;;;;;;23.28;45.52;101989.63;16146437;19;129615;-63
2022/07/13 01:18:53;;;;;;;1.77;1.60;;;;;;;23.27;45.38;101985.13;16147800;19;128958;-63
2022/07/13 01:24:15;;;;;;;2.00;1.42;;;;;;;23.27;45.39;101985.13;16141827;19;129449;-63
2022/07/13 01:29:38;;;;;;;2.00;1.50;;;;;;;23.26;45.35;101983.47;16144974;19;129639;-63
2022/07/13 01:35:00;;;;;;;2.83;1.52;;;;;;;23.26;45.33;101982.59;16145725;19;129876;-62
2022/07/13 01:40:21;;;;;;;1.50;1.40;;;;;;;23.24;45.64;101982.88;16147766;19;129726;-63
2022/07/13 01:45:45;;;;;;;1.60;1.40;;;;;;;23.24;45.56;101968.03;16144412;19;129199;-63
2022/07/13 01:51:06;;;;;;;1.38;1.25;;;;;;;23.24;45.61;101974.50;16149456;19;130250;-63
2022/07/13 01:56:35;;;;;;;2.25;1.58;;;;;;;23.22;45.61;101976.69;16147838;19;129150;-63
2022/07/13 02:01:56;;;;;;;1.67;1.50;;;;;;;23.23;45.36;101969.13;16141983;19;129247;-63
2022/07/13 02:07:18;;;;;;;1.42;1.33;;;;;;;23.21;45.33;101969.41;16141571;19;129743;-63
2022/07/13 02:12:40;;;;;;;1.55;1.13;;;;;;;23.20;45.67;101960.16;16139732;19;129637;-62
2022/07/13 02:18:03;;;;;;;1.52;1.23;;;;;;;23.21;45.30;101958.25;16146585;19;129009;-63
2022/07/13 02:23:25;;;;;;;1.80;1.20;;;;;;;23.20;45.58;101948.16;16145766;19;129175;-63
2022/07/13 02:28:46;;;;;;;1.30;1.05;;;;;;;23.20;45.85;101956.53;16145369;19;129127;-63
2022/07/13 02:34:08;;;;;;;1.42;1.20;;;;;;;23.22;45.41;101947.91;16144872;19;129495;-63
2022/07/13 02:39:30;;;;;;;1.67;1.20;;;;;;;23.19;45.39;101946.47;16145935;19;129648;-63
2022/07/13 02:44:53;;;;;;;1.20;1.10;;;;;;;23.19;45.50;101949.25;16141131;19;129810;-63
2022/07/13 02:50:14;;;;;;;1.52;1.10;;;;;;;23.19;45.71;101949.25;16137682;19;129593;-63
2022/07/13 02:55:36;;;;;;;1.65;1.13;;;;;;;23.19;45.38;101946.47;16141437;19;129630;-63
2022/07/13 03:00:58;;;;;;;1.73;1.20;;;;;;;23.18;45.65;101953.16;16135225;19;129620;-62
2022/07/13 03:06:20;;;;;;;1.60;1.27;;;;;;;23.18;45.32;101947.56;16133051;19;130518;-63
2022/07/13 03:11:41;;;;;;;1.20;1.10;;;;;;;23.17;45.44;101940.28;16142953;19;129289;-63
2022/07/13 03:17:03;;;;;;;1.77;1.00;;;;;;;23.17;45.65;101941.16;16140115;19;130087;-63
2022/07/13 03:22:25;;;;;;;1.25;1.15;;;;;;;23.16;45.37;101945.03;16139376;19;130121;-62
2022/07/13 03:27:47;;;;;;;1.00;0.90;;;;;;;23.16;45.32;101933.00;16133146;19;129502;-63
2022/07/13 03:33:09;;;;;;;1.50;1.17;;;;;;;23.15;45.28;101937.75;16140691;19;129498;-63
2022/07/13 03:38:31;;;;;;;1.30;1.10;;;;;;;23.17;45.35;101929.13;16141331;19;129921;-63
2022/07/13 03:43:52;;;;;;;1.00;0.80;;;;;;;23.16;45.40;101927.44;16138764;19;128825;-63
2022/07/13 03:49:14;;;;;;;1.05;0.85;;;;;;;23.15;45.46;101925.75;16139998;19;129473;-62
2022/07/13 03:54:36;;;;;;;0.98;0.85;;;;;;;23.14;45.44;101926.88;16134867;19;130324;-63
2022/07/13 03:59:57;;;;;;;1.67;0.85;;;;;;;23.15;45.33;101921.00;16136398;19;130427;-62
2022/07/13 04:05:19;;;;;;;0.80;0.80;;;;;;;23.14;45.41;101916.53;16130402;19;129119;-63
2022/07/13 04:10:41;;;;;;;1.40;1.00;;;;;;;23.14;45.42;101922.13;16140582;19;129488;-64
2022/07/13 04:16:03;;;;;;;3.42;1.27;;;;;;;23.10;45.58;101912.53;16137535;19;128882;-63
2022/07/13 04:21:25;;;;;;;3.72;2.33;;;;;;;23.05;45.88;101909.69;16136292;19;129703;-63
2022/07/13 04:26:47;;;;;;;4.60;2.42;;;;;;;23.00;46.14;101915.16;16132512;19;130318;-63
2022/07/13 04:32:08;;;;;;;6.65;2.72;;;;;;;22.96;46.57;101911.19;16139160;19;130025;-63
2022/07/13 04:37:30;;;;;;;7.65;2.78;;;;;;;22.94;46.19;101914.22;16137128;19;129469;-63
2022/07/13 04:42:52;;;;;;;7.25;2.75;;;;;;;22.91;46.25;101908.31;16150620;19;129030;-63
2022/07/13 04:48:14;;;;;;;9.30;4.70;;;;;;;22.88;45.89;101895.69;16144210;19;129356;-63
2022/07/13 04:53:36;;;;;;;25.30;12.75;;;;;;;22.87;46.02;101894.81;16151875;19;130567;-63
2022/07/13 04:58:58;;;;;;;25.77;12.30;;;;;;;22.87;45.78;101896.78;16148719;19;129306;-64
2022/07/13 05:04:20;;;;;;;18.80;10.18;;;;;;;22.86;45.46;101898.72;16146542;19;129800;-64
2022/07/13 05:09:42;;;;;;;15.65;8.52;;;;;;;22.85;45.60;101888.66;16148403;19;129292;-64
2022/07/13 05:15:05;;;;;;;14.35;7.22;;;;;;;22.85;45.08;101896.19;16150844;19;129489;-63
2022/07/13 05:20:27;;;;;;;14.68;6.07;;;;;;;22.88;45.62;101898.47;16150084;19;128986;-63
2022/07/13 05:25:48;;;;;;;9.13;4.85;;;;;;;22.87;45.39;101907.94;16144665;19;128877;-63
2022/07/13 05:31:10;;;;;;;9.07;4.15;;;;;;;22.86;44.88;101914.63;16147925;19;129525;-63
2022/07/13 05:36:32;;;;;;;10.48;3.47;;;;;;;22.85;44.96;101916.56;16147167;19;130850;-63
2022/07/13 05:41:54;;;;;;;11.55;4.13;;;;;;;22.88;44.90;101915.22;16146100;19;129326;-63
2022/07/13 05:47:16;;;;;;;9.23;3.22;;;;;;;22.93;45.34;101920.91;16142520;19;130144;-61
2022/07/13 05:52:37;;;;;;;6.25;3.20;;;;;;;22.96;45.25;101923.19;16148651;19;128882;-61
2022/07/13 05:57:59;;;;;;;6.53;3.38;;;;;;;22.99;45.07;101933.88;16147453;19;129359;-61
2022/07/13 06:03:21;;;;;;;14.35;3.33;;;;;;;23.01;44.80;101937.25;16141005;19;128835;-61
2022/07/13 06:08:43;;;;;;;7.63;2.85;;;;;;;23.03;45.05;101929.44;16141567;19;129412;-61
2022/07/13 06:14:06;;;;;;;6.53;2.90;;;;;;;23.05;45.12;101926.44;16145613;19;129511;-62
2022/07/13 06:19:28;;;;;;;9.00;2.67;;;;;;;23.05;45.00;101932.84;16149750;19;129554;-61
2022/07/13 06:24:50;;;;;;;5.97;2.67;;;;;;;23.06;44.90;101939.28;16144636;19;129435;-61
2022/07/13 06:30:11;;;;;;;3.63;2.40;;;;;;;23.08;44.92;101944.59;16144999;19;129466;-61
2022/07/13 06:35:33;;;;;;;9.02;2.63;;;;;;;23.08;45.20;101942.66;16144959;19;130403;-61
2022/07/13 06:40:55;;;;;;;6.45;2.42;;;;;;;23.10;44.96;101948.00;16144730;19;131134;-62
2022/07/13 06:46:17;;;;;;;4.25;2.15;;;;;;;23.10;45.01;101945.19;16142416;19;129910;-61
2022/07/13 06:51:46;;;;;;;4.05;2.15;;;;;;;23.10;45.33;101942.41;16145905;19;129372;-61
2022/07/13 06:57:08;;;;;;;3.80;1.98;;;;;;;23.12;45.21;101937.44;16143072;19;129305;-61
2022/07/13 07:02:30;;;;;;;3.50;1.92;;;;;;;23.12;45.03;101931.84;16132640;19;130124;-61
2022/07/13 07:07:52;;;;;;;5.35;1.70;;;;;;;23.13;44.62;101933.53;16136671;19;130211;-61
2022/07/13 07:13:14;;;;;;;3.55;1.70;;;;;;;23.14;45.27;101938.03;16141554;19;128922;-61
2022/07/13 07:18:36;;;;;;;2.83;1.63;;;;;;;23.15;45.01;101928.53;16142317;19;129796;-61
2022/07/13 07:23:57;;;;;;;2.35;1.65;;;;;;;23.16;44.91;101927.44;16135872;19;129776;-61
2022/07/13 07:29:19;;;;;;;4.97;1.58;;;;;;;23.17;44.72;101921.63;16141377;19;129430;-61
2022/07/13 07:34:41;;;;;;;3.80;1.33;;;;;;;23.18;44.85;101926.09;16140449;19;129465;-61
2022/07/13 07:40:04;;;;;;;3.28;1.30;;;;;;;23.19;45.03;101933.38;16140411;19;129421;-61
2022/07/13 07:45:25;;;;;;;7.68;1.65;;;;;;;23.19;45.03;101938.09;16136637;19;129630;-61
2022/07/13 07:50:47;;;;;;;2.42;1.30;;;;;;;23.21;45.00;101933.13;16139136;19;128990;-62
2022/07/13 07:56:09;;;;;;;2.53;1.27;;;;;;;23.22;44.97;101932.03;16139013;19;129589;-61
2022/07/13 08:01:31;;;;;;;3.28;1.67;;;;;;;23.24;44.99;101929.81;16131634;19;129622;-62
2022/07/13 08:06:53;;;;;;;1.95;1.13;;;;;;;23.25;44.76;101925.94;16133739;19;129106;-62
2022/07/13 08:12:14;;;;;;;2.55;1.00;;;;;;;23.24;44.83;101941.00;16139280;19;129342;-61
2022/07/13 08:17:38;;;;;;;3.95;1.30;;;;;;;23.26;44.87;101938.78;16150540;19;128877;-61
2022/07/13 08:23:00;;;;;;;1.98;1.20;;;;;;;23.26;44.54;101930.41;16154933;19;129356;-62
2022/07/13 08:28:23;;;;;;;3.38;1.38;;;;;;;23.27;44.97;101940.47;16148920;19;129853;-62
2022/07/13 08:39:35;;;;;;;1.50;0.98;;;;;;;23.28;45.06;101947.75;16140057;19;129427;-61
2022/07/13 08:44:57;;;;;;;1.85;0.98;;;;;;;23.28;44.91;101942.16;16143298;19;129771;-61
2022/07/13 08:50:21;;;;;;;1.35;0.85;;;;;;;23.29;44.89;101946.63;16143461;19;130469;-61
2022/07/13 08:55:43;;;;;;;1.83;1.10;;;;;;;23.29;44.67;101945.81;16141895;19;130037;-62
2022/07/13 09:01:11;;;;;;;1.80;1.10;;;;;;;23.31;44.81;101952.00;16138502;19;130123;-61
2022/07/13 09:06:40;;;;;;;3.25;1.05;;;;;;;23.33;44.90;101945.03;16140208;19;130729;-61
2022/07/13 09:12:09;;;;;;;1.10;0.80;;;;;;;23.34;45.13;101946.75;16142378;19;129361;-61
2022/07/13 09:17:40;;;;;;;1.52;0.80;;;;;;;23.34;44.74;101943.94;16149455;19;130454;-61
2022/07/13 09:23:02;;;;;;;1.35;0.80;;;;;;;23.33;44.62;101942.25;16151035;19;130092;-61
2022/07/13 09:28:24;;;;;;;0.90;0.80;;;;;;;23.35;44.86;101945.63;16141901;19;128941;-62
2022/07/13 09:33:46;;;;;;;1.80;1.00;;;;;;;23.37;44.92;101944.53;16149771;19;128908;-61
2022/07/13 09:39:12;;;;;;;3.15;0.98;;;;;;;23.37;44.99;101939.78;16149279;19;130002;-64
2022/07/13 09:50:17;;;;;;;1.88;0.82;;;;;;;23.42;44.77;101941.81;16149056;19;128886;-62
2022/07/13 09:55:42;;;;;;;1.20;0.70;;;;;;;23.41;44.96;101928.94;16147698;19;129460;-63
2022/07/13 10:01:04;;;;;;;1.55;0.70;;;;;;;23.43;44.67;101937.94;16144309;19;129423;-63
2022/07/13 10:06:27;;;;;;;1.38;0.70;;;;;;;23.45;44.80;101949.69;16146184;19;130705;-63
2022/07/13 10:11:49;;;;;;;1.10;0.60;;;;;;;23.45;44.74;101950.53;16146891;19;129358;-61
2022/07/13 10:17:12;;;;;;;3.17;1.10;;;;;;;23.45;44.63;101953.31;16142915;19;130747;-61
2022/07/13 10:22:45;;;;;;;1.77;0.68;;;;;;;23.49;44.47;101962.06;16146366;19;129330;-61
2022/07/13 10:28:09;;;;;;;4.13;0.90;;;;;;;23.49;44.80;101959.25;16141925;19;128975;-62
2022/07/13 10:33:32;;;;;;;2.08;0.90;;;;;;;23.49;44.67;101953.69;16145904;19;130240;-61
2022/07/13 10:39:09;;;;;;;3.00;1.08;;;;;;;23.50;44.92;101963.75;16139880;19;130152;-61
2022/07/13 10:44:37;;;;;;;2.50;0.80;;;;;;;23.48;44.89;101958.41;16145241;19;130672;-61
2022/07/13 10:50:02;;;;;;;4.55;1.40;;;;;;;23.50;44.89;101960.97;16142998;19;128928;-61
2022/07/13 10:55:29;;;;;;;5.32;1.00;;;;;;;23.49;44.65;101954.50;16146388;19;129659;-61
2022/07/13 11:00:51;;;;;;;3.42;1.15;;;;;;;23.50;44.86;101958.16;16139532;19;129786;-61
2022/07/13 11:06:17;;;;;;;26.13;2.03;;;;;;;23.51;45.00;101954.25;16138669;19;129539;-62
2022/07/13 11:11:44;;;;;;;27.95;6.70;;;;;;;23.55;45.30;101951.81;16137291;19;129523;-62
2022/07/13 11:17:27;;;;;;;38.78;9.10;;;;;;;23.61;45.52;101960.03;16137551;19;130125;-62
2022/07/13 11:29:20;;;;;;;27.70;8.17;;;;;;;23.74;45.40;101949.63;16129788;19;131041;-61
2022/07/13 11:34:42;;;;;;;34.15;7.63;;;;;;;23.77;45.24;101949.06;16133471;19;129622;-61
2022/07/13 11:40:04;;;;;;;21.45;5.93;;;;;;;23.80;45.78;101949.44;16131194;19;129134;-61
2022/07/13 11:45:30;;;;;;;27.83;5.90;;;;;;;23.83;45.43;101931.31;16131207;19;129993;-61
2022/07/13 11:50:52;;;;;;;;;;;;;;;23.82;45.65;101936.03;16127848;19;130316;-62
2022/07/13 11:56:14;;;;;;;14.70;5.15;;;;;;;23.88;45.38;101942.53;16130693;19;130181;-61
2022/07/13 12:01:35;;;;;;;18.83;4.63;;;;;;;23.87;45.17;101940.88;16126767;19;129346;-61
2022/07/13 12:07:20;;;;;;;14.82;4.10;;;;;;;23.89;45.38;101938.63;16136040;19;130493;-61
2022/07/13 12:12:42;;;;;;;19.95;3.97;;;;;;;23.89;45.05;101946.19;16136854;19;129556;-62
2022/07/13 12:18:05;;;;;;;10.57;3.55;;;;;;;23.90;45.24;101931.13;16137489;19;129454;-62
2022/07/13 12:23:31;;;;;;;13.85;2.90;;;;;;;23.90;45.09;101925.53;16138129;19;128945;-62
2022/07/13 12:28:53;;;;;;;9.93;2.65;;;;;;;23.91;45.25;101928.06;16131900;19;129492;-65
2022/07/13 12:34:15;;;;;;;11.25;3.15;;;;;;;23.93;45.54;101930.59;16131906;19;129501;-64
2022/07/13 12:39:40;;;;;;;14.27;3.40;;;;;;;23.94;45.08;101938.72;16135551;19;129555;-65
2022/07/13 12:45:14;;;;;;;12.60;3.40;;;;;;;23.95;45.43;101928.38;16134617;19;129274;-63
2022/07/13 12:50:37;;;;;;;9.50;2.90;;;;;;;23.97;45.24;101938.22;16133012;19;130311;-64
2022/07/13 12:55:58;;;;;;;13.20;2.78;;;;;;;24.00;45.80;101947.19;16135072;19;129868;-64
2022/07/13 13:01:31;;;;;;;13.40;2.97;;;;;;;24.00;46.09;101958.38;16139259;19;129467;-63
2022/07/13 13:06:53;;;;;;;12.35;2.63;;;;;;;23.97;46.32;101960.56;16146767;19;130063;-64
2022/07/13 13:12:15;;;;;;;7.60;2.83;;;;;;;23.99;46.27;101953.88;16144276;19;129691;-64
2022/07/13 13:17:37;;;;;;;11.90;2.58;;;;;;;23.97;46.21;101957.78;16148244;19;129472;-65
2022/07/13 13:22:58;;;;;;;8.25;2.35;;;;;;;23.97;46.20;101960.56;16148331;19;130034;-64
2022/07/13 13:28:20;;;;;;;6.40;2.45;;;;;;;23.99;46.22;101956.69;16145346;19;129871;-64
2022/07/13 13:33:42;;;;;;;7.75;2.08;;;;;;;24.00;46.20;101970.38;16148227;19;130100;-64
2022/07/13 13:39:23;;;;;;;9.55;2.10;;;;;;;24.00;45.73;101963.97;16147562;19;129897;-64
2022/07/13 13:44:45;;;;;;;5.75;2.15;;;;;;;23.99;45.88;101968.69;16141907;19;130155;-64
2022/07/13 13:50:07;;;;;;;7.82;1.92;;;;;;;24.01;45.77;101965.63;16144678;19;131628;-64
2022/07/13 13:55:30;;;;;;;8.82;2.03;;;;;;;24.01;45.58;101968.41;16146667;19;130090;-64
2022/07/13 14:00:52;;;;;;;10.70;2.22;;;;;;;24.01;45.80;101971.22;16144144;19;129021;-64
2022/07/13 14:06:14;;;;;;;2.25;1.50;;;;;;;24.00;45.20;101964.78;16151632;19;129310;-64
2022/07/13 14:11:35;;;;;;;7.45;1.92;;;;;;;24.00;45.11;101955.56;16142252;19;128920;-64
2022/07/13 14:16:57;;;;;;;5.00;1.83;;;;;;;24.02;45.27;101944.94;16145464;19;129369;-64
2022/07/13 14:22:19;;;;;;;8.40;1.80;;;;;;;24.03;45.64;101953.09;16143136;19;130789;-64
2022/07/13 14:27:41;;;;;;;5.60;1.70;;;;;;;24.04;45.48;101943.63;16140829;19;129927;-64
2022/07/13 14:33:03;;;;;;;3.17;1.50;;;;;;;24.05;45.37;101945.31;16145233;19;129593;-65
2022/07/13 14:38:24;;;;;;;9.90;1.80;;;;;;;24.07;45.42;101947.84;16142669;19;130181;-65
2022/07/13 14:43:54;;;;;;;3.92;1.50;;;;;;;24.06;45.24;101946.97;16142296;19;130054;-64
2022/07/13 14:49:16;;;;;;;6.32;1.80;;;;;;;24.09;45.93;101942.84;16137041;19;129107;-65
2022/07/13 14:54:46;;;;;;;5.35;1.55;;;;;;;24.11;45.36;101949.84;16141816;19;129504;-64
2022/07/13 15:00:08;;;;;;;8.25;1.58;;;;;;;24.14;45.78;101953.22;16138720;19;129112;-64
2022/07/13 15:05:31;;;;;;;4.35;1.50;;;;;;;24.12;45.60;101945.13;16141184;19;129521;-64
2022/07/13 15:10:53;;;;;;;7.20;1.52;;;;;;;24.10;45.82;101956.53;16137006;19;129318;-65
2022/07/13 15:16:15;;;;;;;4.78;1.50;;;;;;;24.11;45.54;101963.00;16138515;19;130451;-64
2022/07/13 15:21:38;;;;;;;9.27;1.70;;;;;;;24.11;45.45;101955.44;16134856;19;129345;-64
2022/07/13 15:26:59;;;;;;;8.15;1.77;;;;;;;24.11;45.40;101951.81;16133736;19;130039;-64
2022/07/13 15:32:21;;;;;;;9.32;1.92;;;;;;;24.12;45.52;101956.31;16137635;19;129191;-63
2022/07/13 15:37:43;;;;;;;4.13;1.30;;;;;;;24.11;45.62;101957.41;16132752;19;129234;-64
2022/07/13 15:43:05;;;;;;;5.93;1.02;;;;;;;24.12;46.03;101951.53;16133247;19;129883;-62
2022/07/13 15:48:26;;;;;;;10.05;1.40;;;;;;;24.12;45.86;101959.09;16133193;19;130047;-62
2022/07/13 15:53:48;;;;;;;8.80;1.52;;;;;;;24.08;45.53;101955.13;16135853;19;129455;-62
2022/07/13 15:59:10;;;;;;;6.22;1.20;;;;;;;24.05;45.91;101956.50;16136746;19;129914;-62
2022/07/13 16:04:32;;;;;;;4.53;1.20;;;;;;;24.04;45.88;101956.72;16136501;19;129343;-62
2022/07/13 16:09:54;;;;;;;2.28;0.90;;;;;;;24.01;45.72;101958.09;16132376;19;129639;-62
2022/07/13 16:15:15;;;;;;;2.47;1.02;;;;;;;24.01;45.83;101951.66;16131539;19;129102;-62
2022/07/13 16:20:37;;;;;;;2.53;0.90;;;;;;;23.99;45.87;101956.69;16136707;19;130051;-62
2022/07/13 16:25:59;;;;;;;1.90;0.93;;;;;;;23.97;45.74;101954.97;16132406;19;130583;-62
2022/07/13 16:31:21;;;;;;;3.53;1.05;;;;;;;23.95;45.64;101951.59;16127495;19;130274;-62
2022/07/13 16:36:43;;;;;;;3.28;1.27;;;;;;;23.95;45.36;101956.31;16135523;19;130525;-61
2022/07/13 16:42:05;;;;;;;3.67;1.48;;;;;;;23.93;45.00;101955.75;16149584;19;130799;-61
2022/07/13 16:47:26;;;;;;;3.42;1.08;;;;;;;23.96;44.55;101955.22;16144646;19;129432;-64
2022/07/13 16:52:48;;;;;;;4.30;1.05;;;;;;;23.99;45.06;101942.69;16149110;19;129576;-62
2022/07/13 16:58:10;;;;;;;5.93;1.42;;;;;;;24.02;44.91;101950.53;16149275;19;129321;-65
2022/07/13 17:03:32;;;;;;;3.50;1.48;;;;;;;24.05;45.23;101938.84;16137383;19;129571;-61
2022/07/13 17:08:54;;;;;;;4.25;1.33;;;;;;;24.07;45.02;101936.66;16144872;19;129411;-62
2022/07/13 17:14:19;;;;;;;5.00;1.20;;;;;;;24.13;44.81;101941.19;16138325;19;129245;-59
2022/07/13 17:19:41;;;;;;;4.85;1.15;;;;;;;24.17;45.27;101936.78;16147169;19;128865;-63
2022/07/13 17:25:03;;;;;;;2.75;1.15;;;;;;;24.15;45.45;101930.59;16148489;19;129384;-63
2022/07/13 17:30:25;;;;;;;2.60;1.00;;;;;;;24.14;45.03;101942.88;16142303;19;129859;-63
2022/07/13 17:35:46;;;;;;;3.83;1.20;;;;;;;24.11;45.25;101933.06;16147382;19;129128;-64
2022/07/13 17:41:08;;;;;;;2.10;1.10;;;;;;;24.08;45.20;101932.75;16144493;19;129639;-63
2022/07/13 17:46:31;;;;;;;3.90;1.17;;;;;;;24.06;45.29;101946.13;16141329;19;129653;-63
2022/07/13 17:51:53;;;;;;;3.55;1.10;;;;;;;24.07;45.21;101947.84;16144523;19;130765;-63
2022/07/13 17:57:14;;;;;;;4.85;1.17;;;;;;;24.05;45.16;101944.44;16148864;19;130269;-61
2022/07/13 18:02:36;;;;;;;4.13;0.98;;;;;;;24.04;45.45;101942.75;16141635;19;129392;-66
2022/07/13 18:07:58;;;;;;;5.57;1.10;;;;;;;24.05;45.17;101941.66;16147318;19;129262;-58
2022/07/13 18:13:22;;;;;;;3.63;1.20;;;;;;;24.07;45.05;101942.25;16149298;19;129845;-58
2022/07/13 18:18:44;;;;;;;3.38;1.20;;;;;;;24.09;45.46;101940.03;16144955;19;129153;-58
2022/07/13 18:24:13;;;;;;;2.17;0.88;;;;;;;24.09;45.59;101951.22;16141654;19;128885;-62
2022/07/13 18:29:36;;;;;;;2.85;0.98;;;;;;;24.12;45.44;101956.31;16140969;19;129900;-60
2022/07/13 18:34:57;;;;;;;2.53;1.10;;;;;;;24.10;45.58;101953.75;16143226;19;129616;-62
2022/07/13 18:40:23;;;;;;;2.28;0.90;;;;;;;24.10;45.53;101952.91;16146215;19;131707;-67
2022/07/13 18:45:45;;;;;;;4.35;0.80;;;;;;;24.10;45.71;101950.94;16151271;19;129065;-62
2022/07/13 18:51:07;;;;;;;4.03;1.00;;;;;;;24.10;45.71;101952.91;16144362;19;129510;-63
2022/07/13 18:56:29;;;;;;;4.93;1.00;;;;;;;24.09;45.81;101956.81;16147716;19;130737;-64
2022/07/13 19:01:51;;;;;;;1.40;0.82;;;;;;;24.09;45.79;101971.63;16143364;19;129805;-64
2022/07/13 19:07:13;;;;;;;2.97;1.00;;;;;;;24.10;45.52;101975.28;16144934;19;129827;-62
2022/07/13 19:12:34;;;;;;;1.90;0.98;;;;;;;24.09;45.71;101974.41;16194905;19;129711;-60
2022/07/13 19:17:57;;;;;;;4.18;1.30;;;;;;;24.09;45.66;101966.03;16221739;19;128729;-65
2022/07/13 19:23:19;;;;;;;5.43;0.90;;;;;;;24.10;45.82;101983.66;16215779;19;129245;-62
2022/07/13 19:28:40;;;;;;;2.08;1.00;;;;;;;24.08;45.99;101992.28;16205171;19;128681;-60
2022/07/13 19:34:02;;;;;;;1.70;1.00;;;;;;;24.07;45.63;101987.81;16220084;19;128465;-63
2022/07/13 19:39:24;;;;;;;4.47;1.00;;;;;;;24.07;45.82;101998.16;16216490;19;129284;-64
2022/07/13 19:44:47;;;;;;;1.77;0.88;;;;;;;24.07;45.91;102003.75;16209166;19;129873;-62
2022/07/13 19:50:09;;;;;;;4.32;1.10;;;;;;;24.07;45.91;102004.56;16163700;19;129230;-60
2022/07/13 19:55:31;;;;;;;3.08;1.02;;;;;;;24.08;45.83;102011.03;16139930;19;129143;-63
2022/07/13 20:00:53;;;;;;;1.52;0.93;;;;;;;24.06;45.90;102013.22;16136270;19;129441;-63
2022/07/13 20:06:15;;;;;;;4.40;1.10;;;;;;;24.06;46.19;102016.03;16140790;19;129416;-60
2022/07/13 20:11:36;;;;;;;1.58;0.80;;;;;;;24.06;45.92;102007.63;16131815;19;133291;-59
2022/07/13 20:17:00;;;;;;;2.40;0.90;;;;;;;24.07;46.08;102026.09;16133068;19;130090;-61
2022/07/13 20:22:22;;;;;;;2.38;0.90;;;;;;;24.06;45.98;102030.84;16131117;19;129267;-61
2022/07/13 20:27:44;;;;;;;2.85;1.00;;;;;;;24.07;46.00;102031.69;16137381;19;132434;-63
2022/07/13 20:33:08;;;;;;;3.13;1.00;;;;;;;24.05;45.89;102037.56;16136975;19;129010;-61
2022/07/13 20:38:30;;;;;;;2.53;0.87;;;;;;;24.04;46.13;102033.06;16136923;19;130167;-60
2022/07/13 20:43:53;;;;;;;1.73;0.90;;;;;;;24.06;46.23;102052.38;16135819;19;129875;-59
2022/07/13 20:49:15;;;;;;;3.03;1.08;;;;;;;24.05;45.56;102050.66;16133483;19;130195;-64
2022/07/13 20:54:36;;;;;;;5.15;0.90;;;;;;;24.09;45.88;102043.47;16136099;19;129383;-63
2022/07/13 20:59:58;;;;;;;14.00;1.38;;;;;;;24.06;45.55;102035.59;16130393;19;129613;-63
2022/07/13 21:05:20;;;;;;;9.20;1.50;;;;;;;24.03;45.37;102042.56;16133706;19;129624;-63
2022/07/13 21:10:42;;;;;;;2.00;0.95;;;;;;;24.04;45.22;102037.78;16129041;19;129626;-63
2022/07/13 21:16:04;;;;;;;3.83;0.95;;;;;;;24.02;45.54;102053.97;16130097;19;129458;-64
2022/07/13 21:21:26;;;;;;;3.47;1.42;;;;;;;23.97;45.13;102044.41;16135568;19;129017;-63
2022/07/13 21:26:48;;;;;;;5.90;1.30;;;;;;;23.97;44.94;102060.31;16147953;19;129534;-64
2022/07/13 21:32:09;;;;;;;3.70;1.13;;;;;;;23.97;44.99;102065.91;16141343;19;130492;-63
2022/07/13 21:37:31;;;;;;;2.60;1.00;;;;;;;23.95;44.83;102063.38;16143977;19;129763;-63
2022/07/13 21:42:53;;;;;;;3.42;1.48;;;;;;;23.94;44.74;102061.69;16145698;19;131493;-63
2022/07/13 21:48:15;;;;;;;2.28;0.85;;;;;;;23.93;44.89;102046.03;16145322;19;131872;-63
2022/07/13 21:53:37;;;;;;;1.80;0.80;;;;;;;23.92;44.62;102041.53;16144381;19;129239;-63
2022/07/13 21:58:58;;;;;;;3.65;1.10;;;;;;;23.92;44.92;102046.28;16142808;19;129987;-63
2022/07/13 22:04:20;;;;;;;3.40;0.90;;;;;;;23.90;44.95;102054.91;16145249;19;129331;-63
2022/07/13 22:10:19;;;;;;;2.83;1.00;;;;;;;23.90;44.76;102066.09;16142333;19;129047;-63
2022/07/13 22:16:18;;;;;;;2.13;0.88;;;;;;;23.88;44.45;102073.88;16143278;19;129644;-63
2022/07/13 22:22:18;;;;;;;3.05;1.10;;;;;;;23.86;44.55;102047.28;16144566;19;129808;-64
2022/07/13 22:28:17;;;;;;;8.60;1.05;;;;;;;23.85;44.80;102028.84;16143029;19;129549;-63
2022/07/13 22:34:16;;;;;;;2.78;1.17;;;;;;;23.82;44.82;102036.63;16142050;19;128920;-63
2022/07/13 22:40:15;;;;;;;1.85;0.98;;;;;;;23.80;44.58;102046.38;16143872;19;129744;-64
2022/07/13 22:46:14;;;;;;;3.25;0.90;;;;;;;23.79;44.61;102047.47;16142168;19;130474;-63
2022/07/13 22:52:13;;;;;;;3.15;1.30;;;;;;;23.78;44.65;102071.78;16139231;19;131456;-64
2022/07/13 22:58:13;;;;;;;2.85;0.95;;;;;;;23.78;44.59;102045.78;16136649;19;128997;-63
2022/07/13 23:04:12;;;;;;;4.32;1.02;;;;;;;23.76;44.70;102048.84;16136013;19;129151;-63
2022/07/13 23:10:11;;;;;;;2.38;1.00;;;;;;;23.75;44.60;102065.88;16139297;19;129122;-64
2022/07/13 23:16:10;;;;;;;10.15;0.88;;;;;;;23.74;44.64;102061.38;16137896;19;129416;-63
2022/07/13 23:22:09;;;;;;;4.45;1.10;;;;;;;23.73;44.60;102060.50;16138975;19;130081;-63
2022/07/13 23:28:11;;;;;;;4.72;1.10;;;;;;;23.73;44.51;102054.94;16139947;19;129380;-63
2022/07/13 23:33:36;;;;;;;2.13;0.80;;;;;;;23.72;44.61;102016.91;16139229;19;129432;-63
2022/07/13 23:38:58;;;;;;;2.92;1.05;;;;;;;23.71;44.66;102011.59;16142437;19;129750;-63
2022/07/13 23:44:20;;;;;;;2.45;0.82;;;;;;;23.71;44.47;102014.38;16135868;19;129546;-63
2022/07/13 23:49:42;;;;;;;1.60;0.90;;;;;;;23.70;44.46;102026.66;16136374;19;128970;-63
2022/07/13 23:55:04;;;;;;;3.92;1.05;;;;;;;23.70;44.19;102015.47;16137863;19;129379;-63
